sensor_id;sensor_type;location;lat;lon;timestamp;pressure;altitude;pressure_sealevel;temperature;humidity
43155;BME280;34212;51.018;13.586;2023-07-08T00:00:40;98289.84;;;20.04;48.31
43155;BME280;34212;51.018;13.586;2023-07-08T00:05:42;98290.06;;;20.02;48.54
43155;BME280;34212;51.018;13.586;2023-07-08T00:10:44;98294.88;;;20.00;48.70
43155;BME280;34212;51.018;13.586;2023-07-08T00:15:46;98290.28;;;20.01;48.54
43155;BME280;34212;51.018;13.586;2023-07-08T00:20:49;98291.13;;;20.01;48.80
43155;BME280;34212;51.018;13.586;2023-07-08T00:25:51;98301.94;;;20.01;48.48
43155;BME280;34212;51.018;13.586;2023-07-08T00:30:53;98301.56;;;19.98;48.36
43155;BME280;34212;51.018;13.586;2023-07-08T00:35:55;98306.94;;;19.86;48.98
43155;BME280;34212;51.018;13.586;2023-07-08T00:51:25;98312.56;;;19.48;50.33
43155;BME280;34212;51.018;13.586;2023-07-08T00:56:30;98308.41;;;19.45;49.91
43155;BME280;34212;51.018;13.586;2023-07-08T01:01:36;98293.00;;;19.46;49.66
43155;BME280;34212;51.018;13.586;2023-07-08T01:06:41;98299.03;;;19.48;48.94
43155;BME280;34212;51.018;13.586;2023-07-08T01:11:46;98304.56;;;19.53;48.32
43155;BME280;34212;51.018;13.586;2023-07-08T01:16:47;98303.31;;;19.55;48.64
43155;BME280;34212;51.018;13.586;2023-07-08T01:26:56;98291.50;;;19.50;47.91
43155;BME280;34212;51.018;13.586;2023-07-08T01:31:59;98285.97;;;19.45;47.98
43155;BME280;34212;51.018;13.586;2023-07-08T01:37:05;98271.00;;;19.42;48.51
43155;BME280;34212;51.018;13.586;2023-07-08T01:42:08;98277.69;;;19.39;49.04
43155;BME280;34212;51.018;13.586;2023-07-08T01:47:17;98274.38;;;19.37;48.73
43155;BME280;34212;51.018;13.586;2023-07-08T01:52:20;98274.59;;;19.36;48.43
43155;BME280;34212;51.018;13.586;2023-07-08T01:57:22;98271.66;;;19.37;48.02
43155;BME280;34212;51.018;13.586;2023-07-08T02:02:24;98257.09;;;19.38;48.68
43155;BME280;34212;51.018;13.586;2023-07-08T02:07:26;98261.44;;;19.39;48.50
43155;BME280;34212;51.018;13.586;2023-07-08T02:12:28;98265.22;;;19.38;48.12
43155;BME280;34212;51.018;13.586;2023-07-08T02:17:29;98265.22;;;19.38;47.78
43155;BME280;34212;51.018;13.586;2023-07-08T02:22:31;98258.75;;;19.39;48.03
43155;BME280;34212;51.018;13.586;2023-07-08T02:27:32;98253.59;;;19.38;47.99
43155;BME280;34212;51.018;13.586;2023-07-08T02:32:34;98248.16;;;19.38;47.77
43155;BME280;34212;51.018;13.586;2023-07-08T02:37:37;98245.69;;;19.36;47.64
43155;BME280;34212;51.018;13.586;2023-07-08T02:42:38;98253.19;;;19.34;47.59
43155;BME280;34212;51.018;13.586;2023-07-08T02:47:40;98244.94;;;19.29;47.24
43155;BME280;34212;51.018;13.586;2023-07-08T02:52:41;98247.84;;;19.28;47.30
43155;BME280;34212;51.018;13.586;2023-07-08T02:57:43;98249.16;;;19.25;47.22
43155;BME280;34212;51.018;13.586;2023-07-08T03:02:45;98246.22;;;19.27;48.13
43155;BME280;34212;51.018;13.586;2023-07-08T03:07:47;98252.69;;;19.26;47.66
43155;BME280;34212;51.018;13.586;2023-07-08T03:12:48;98247.47;;;19.24;48.15
43155;BME280;34212;51.018;13.586;2023-07-08T03:17:50;98247.72;;;19.23;47.71
43155;BME280;34212;51.018;13.586;2023-07-08T03:22:52;98244.19;;;19.22;47.48
43155;BME280;34212;51.018;13.586;2023-07-08T03:27:54;98249.38;;;19.24;47.47
43155;BME280;34212;51.018;13.586;2023-07-08T03:32:58;98249.38;;;19.24;47.19
43155;BME280;34212;51.018;13.586;2023-07-08T03:38:01;98253.94;;;19.23;47.16
43155;BME280;34212;51.018;13.586;2023-07-08T03:43:03;98252.88;;;19.24;47.62
43155;BME280;34212;51.018;13.586;2023-07-08T03:48:05;98256.19;;;19.26;47.48
43155;BME280;34212;51.018;13.586;2023-07-08T03:53:08;98242.44;;;19.28;47.29
43155;BME280;34212;51.018;13.586;2023-07-08T03:58:10;98262.81;;;19.30;47.32
43155;BME280;34212;51.018;13.586;2023-07-08T04:03:13;98254.69;;;19.30;47.32
43155;BME280;34212;51.018;13.586;2023-07-08T04:08:14;98255.31;;;19.32;47.48
43155;BME280;34212;51.018;13.586;2023-07-08T04:13:16;98253.19;;;19.34;47.53
43155;BME280;34212;51.018;13.586;2023-07-08T04:18:17;98260.03;;;19.37;47.35
43155;BME280;34212;51.018;13.586;2023-07-08T04:23:20;98251.69;;;19.38;47.47
43155;BME280;34212;51.018;13.586;2023-07-08T04:28:21;98268.06;;;19.44;47.79
43155;BME280;34212;51.018;13.586;2023-07-08T04:33:23;98255.97;;;19.46;48.05
43155;BME280;34212;51.018;13.586;2023-07-08T04:38:26;98243.88;;;19.49;47.87
43155;BME280;34212;51.018;13.586;2023-07-08T04:43:28;98259.66;;;19.52;48.37
43155;BME280;34212;51.018;13.586;2023-07-08T04:48:30;98260.03;;;19.55;48.37
43155;BME280;34212;51.018;13.586;2023-07-08T04:53:34;98265.34;;;19.62;48.59
43155;BME280;34212;51.018;13.586;2023-07-08T04:58:35;98264.47;;;19.68;48.41
43155;BME280;34212;51.018;13.586;2023-07-08T05:03:37;98259.81;;;19.75;48.54
43155;BME280;34212;51.018;13.586;2023-07-08T05:08:38;98264.31;;;19.81;48.92
43155;BME280;34212;51.018;13.586;2023-07-08T05:13:40;98267.75;;;19.89;49.10
43155;BME280;34212;51.018;13.586;2023-07-08T05:18:41;98274.97;;;19.95;49.59
43155;BME280;34212;51.018;13.586;2023-07-08T05:23:43;98271.09;;;20.02;50.19
43155;BME280;34212;51.018;13.586;2023-07-08T05:28:45;98258.06;;;20.11;49.59
43155;BME280;34212;51.018;13.586;2023-07-08T05:33:47;98281.78;;;20.16;49.70
43155;BME280;34212;51.018;13.586;2023-07-08T05:38:48;98275.19;;;20.23;50.20
43155;BME280;34212;51.018;13.586;2023-07-08T05:43:50;98267.31;;;20.34;50.73
43155;BME280;34212;51.018;13.586;2023-07-08T05:48:51;98278.66;;;20.42;50.49
43155;BME280;34212;51.018;13.586;2023-07-08T05:53:53;98280.81;;;20.52;50.91
43155;BME280;34212;51.018;13.586;2023-07-08T05:58:55;98286.03;;;20.65;50.89
43155;BME280;34212;51.018;13.586;2023-07-08T06:03:56;98283.59;;;20.75;51.13
43155;BME280;34212;51.018;13.586;2023-07-08T06:09:02;98290.88;;;20.87;51.29
43155;BME280;34212;51.018;13.586;2023-07-08T06:14:05;98286.78;;;20.96;51.32
43155;BME280;34212;51.018;13.586;2023-07-08T06:19:07;98288.69;;;21.07;51.36
43155;BME280;34212;51.018;13.586;2023-07-08T06:24:08;98285.72;;;21.20;50.84
43155;BME280;34212;51.018;13.586;2023-07-08T06:29:10;98287.00;;;21.30;51.57
43155;BME280;34212;51.018;13.586;2023-07-08T06:34:12;98283.50;;;21.41;51.28
43155;BME280;34212;51.018;13.586;2023-07-08T06:39:13;98285.13;;;21.54;51.16
43155;BME280;34212;51.018;13.586;2023-07-08T06:44:15;98290.06;;;21.68;51.38
43155;BME280;34212;51.018;13.586;2023-07-08T06:49:16;98280.00;;;21.81;51.40
43155;BME280;34212;51.018;13.586;2023-07-08T06:54:18;98282.44;;;21.94;51.57
43155;BME280;34212;51.018;13.586;2023-07-08T06:59:20;98288.38;;;22.08;51.68
43155;BME280;34212;51.018;13.586;2023-07-08T07:04:22;98279.72;;;22.23;51.89
43155;BME280;34212;51.018;13.586;2023-07-08T07:09:23;98287.34;;;22.38;51.60
43155;BME280;34212;51.018;13.586;2023-07-08T07:14:25;98285.38;;;22.50;51.89
43155;BME280;34212;51.018;13.586;2023-07-08T07:19:30;98280.94;;;22.60;52.18
43155;BME280;34212;51.018;13.586;2023-07-08T07:24:31;98282.28;;;22.75;52.60
43155;BME280;34212;51.018;13.586;2023-07-08T07:29:46;98281.44;;;22.91;52.13
43155;BME280;34212;51.018;13.586;2023-07-08T07:34:49;98274.63;;;23.05;52.45
43155;BME280;34212;51.018;13.586;2023-07-08T07:39:51;98278.94;;;23.23;52.22
43155;BME280;34212;51.018;13.586;2023-07-08T07:44:52;98282.47;;;23.41;52.64
43155;BME280;34212;51.018;13.586;2023-07-08T07:49:54;98281.88;;;23.56;51.96
43155;BME280;34212;51.018;13.586;2023-07-08T07:54:55;98284.22;;;23.69;51.75
43155;BME280;34212;51.018;13.586;2023-07-08T07:59:57;98276.50;;;23.83;51.89
43155;BME280;34212;51.018;13.586;2023-07-08T08:04:59;98283.44;;;23.95;51.83
43155;BME280;34212;51.018;13.586;2023-07-08T08:10:00;98274.91;;;24.09;51.81
43155;BME280;34212;51.018;13.586;2023-07-08T08:15:02;98278.34;;;24.26;52.11
43155;BME280;34212;51.018;13.586;2023-07-08T08:20:04;98275.84;;;24.47;51.61
43155;BME280;34212;51.018;13.586;2023-07-08T08:25:06;98276.34;;;24.71;50.85
43155;BME280;34212;51.018;13.586;2023-07-08T08:30:08;98277.31;;;24.92;51.36
43155;BME280;34212;51.018;13.586;2023-07-08T08:35:10;98281.28;;;25.11;50.80
43155;BME280;34212;51.018;13.586;2023-07-08T08:40:12;98268.88;;;25.35;50.71
43155;BME280;34212;51.018;13.586;2023-07-08T08:45:17;98266.59;;;25.65;47.08
43155;BME280;34212;51.018;13.586;2023-07-08T08:50:28;98281.50;;;25.99;45.64
43155;BME280;34212;51.018;13.586;2023-07-08T08:55:31;98274.75;;;26.27;45.56
43155;BME280;34212;51.018;13.586;2023-07-08T09:00:50;98266.84;;;26.46;45.25
43155;BME280;34212;51.018;13.586;2023-07-08T09:05:58;98275.94;;;26.67;43.64
43155;BME280;34212;51.018;13.586;2023-07-08T09:16:40;98278.63;;;27.03;41.35
43155;BME280;34212;51.018;13.586;2023-07-08T09:21:51;98271.81;;;27.16;40.05
43155;BME280;34212;51.018;13.586;2023-07-08T09:26:57;98280.00;;;27.21;39.76
43155;BME280;34212;51.018;13.586;2023-07-08T09:32:14;98275.09;;;27.18;39.22
43155;BME280;34212;51.018;13.586;2023-07-08T09:37:28;98265.50;;;27.10;38.46
43155;BME280;34212;51.018;13.586;2023-07-08T09:42:34;98272.06;;;26.99;39.87
43155;BME280;34212;51.018;13.586;2023-07-08T09:47:37;98269.34;;;27.04;40.08
43155;BME280;34212;51.018;13.586;2023-07-08T09:52:40;98270.97;;;27.26;39.42
43155;BME280;34212;51.018;13.586;2023-07-08T09:57:44;98281.06;;;27.46;38.99
43155;BME280;34212;51.018;13.586;2023-07-08T10:02:56;98286.78;;;27.49;38.66
43155;BME280;34212;51.018;13.586;2023-07-08T10:08:00;98278.56;;;27.54;38.12
43155;BME280;34212;51.018;13.586;2023-07-08T10:13:15;98276.06;;;27.63;39.05
43155;BME280;34212;51.018;13.586;2023-07-08T10:18:27;98275.22;;;27.73;38.60
43155;BME280;34212;51.018;13.586;2023-07-08T10:23:50;98279.59;;;27.74;38.71
43155;BME280;34212;51.018;13.586;2023-07-08T10:39:54;98277.41;;;27.76;38.34
43155;BME280;34212;51.018;13.586;2023-07-08T10:50:55;98271.41;;;27.79;37.21
43155;BME280;34212;51.018;13.586;2023-07-08T10:56:23;98276.03;;;27.83;36.82
43155;BME280;34212;51.018;13.586;2023-07-08T11:06:55;98271.34;;;27.84;35.56
43155;BME280;34212;51.018;13.586;2023-07-08T11:13:20;98265.88;;;27.84;36.21
43155;BME280;34212;51.018;13.586;2023-07-08T11:23:10;98257.00;;;28.02;35.41
43155;BME280;34212;51.018;13.586;2023-07-08T11:28:19;98253.63;;;28.21;34.04
43155;BME280;34212;51.018;13.586;2023-07-08T11:33:24;98245.84;;;28.33;33.35
43155;BME280;34212;51.018;13.586;2023-07-08T11:38:26;98248.56;;;28.38;33.25
43155;BME280;34212;51.018;13.586;2023-07-08T11:44:18;98242.00;;;28.34;32.90
43155;BME280;34212;51.018;13.586;2023-07-08T11:49:02;98242.00;;;28.34;33.30
43155;BME280;34212;51.018;13.586;2023-07-08T11:59:15;98238.78;;;28.22;32.22
43155;BME280;34212;51.018;13.586;2023-07-08T12:04:27;98245.38;;;28.26;32.00
43155;BME280;34212;51.018;13.586;2023-07-08T12:09:29;98240.94;;;28.30;32.48
43155;BME280;34212;51.018;13.586;2023-07-08T12:14:36;98238.19;;;28.30;32.27
43155;BME280;34212;51.018;13.586;2023-07-08T12:19:39;98236.75;;;28.38;32.73
43155;BME280;34212;51.018;13.586;2023-07-08T12:24:43;98237.66;;;28.28;33.35
43155;BME280;34212;51.018;13.586;2023-07-08T12:29:45;98241.53;;;28.22;33.44
43155;BME280;34212;51.018;13.586;2023-07-08T12:34:46;98240.78;;;28.11;33.09
43155;BME280;34212;51.018;13.586;2023-07-08T12:39:57;98225.19;;;28.06;33.53
43155;BME280;34212;51.018;13.586;2023-07-08T12:45:16;98218.63;;;28.02;34.53
43155;BME280;34212;51.018;13.586;2023-07-08T12:50:18;98226.28;;;28.05;34.42
43155;BME280;34212;51.018;13.586;2023-07-08T12:55:20;98235.63;;;28.04;33.03
43155;BME280;34212;51.018;13.586;2023-07-08T13:00:26;98230.38;;;28.13;33.20
43155;BME280;34212;51.018;13.586;2023-07-08T13:05:29;98217.28;;;28.39;31.95
43155;BME280;34212;51.018;13.586;2023-07-08T13:10:34;98206.56;;;29.35;30.96
43155;BME280;34212;51.018;13.586;2023-07-08T13:15:38;98208.97;;;29.85;31.02
43155;BME280;34212;51.018;13.586;2023-07-08T13:20:43;98199.47;;;29.96;30.68
43155;BME280;34212;51.018;13.586;2023-07-08T13:25:47;98193.09;;;29.82;29.94
43155;BME280;34212;51.018;13.586;2023-07-08T13:31:00;98192.84;;;29.78;30.08
43155;BME280;34212;51.018;13.586;2023-07-08T13:36:04;98185.53;;;29.68;30.13
43155;BME280;34212;51.018;13.586;2023-07-08T13:41:07;98198.03;;;29.61;30.80
43155;BME280;34212;51.018;13.586;2023-07-08T13:57:16;98177.25;;;29.50;31.12
43155;BME280;34212;51.018;13.586;2023-07-08T14:02:24;98177.78;;;29.52;30.63
43155;BME280;34212;51.018;13.586;2023-07-08T14:07:30;98174.38;;;29.60;30.30
43155;BME280;34212;51.018;13.586;2023-07-08T14:12:32;98188.06;;;29.65;31.07
43155;BME280;34212;51.018;13.586;2023-07-08T14:17:34;98191.94;;;29.64;30.44
43155;BME280;34212;51.018;13.586;2023-07-08T14:22:37;98196.47;;;29.50;30.78
43155;BME280;34212;51.018;13.586;2023-07-08T14:27:38;98193.81;;;29.44;31.86
43155;BME280;34212;51.018;13.586;2023-07-08T14:32:40;98183.91;;;29.43;32.13
43155;BME280;34212;51.018;13.586;2023-07-08T14:37:42;98188.91;;;29.41;32.17
43155;BME280;34212;51.018;13.586;2023-07-08T14:42:44;98187.13;;;29.51;32.01
43155;BME280;34212;51.018;13.586;2023-07-08T14:47:45;98191.47;;;29.57;32.13
43155;BME280;34212;51.018;13.586;2023-07-08T14:52:47;98181.28;;;29.57;32.08
43155;BME280;34212;51.018;13.586;2023-07-08T14:57:49;98179.41;;;29.53;31.80
43155;BME280;34212;51.018;13.586;2023-07-08T15:02:51;98175.00;;;29.33;31.02
43155;BME280;34212;51.018;13.586;2023-07-08T15:07:57;98169.91;;;29.21;30.61
43155;BME280;34212;51.018;13.586;2023-07-08T15:13:00;98169.44;;;29.14;30.39
43155;BME280;34212;51.018;13.586;2023-07-08T15:18:06;98170.53;;;29.13;30.57
43155;BME280;34212;51.018;13.586;2023-07-08T15:23:12;98168.63;;;29.13;30.28
43155;BME280;34212;51.018;13.586;2023-07-08T15:33:33;98177.44;;;29.34;29.72
43155;BME280;34212;51.018;13.586;2023-07-08T15:38:35;98175.97;;;29.42;29.29
43155;BME280;34212;51.018;13.586;2023-07-08T15:43:37;98173.00;;;29.38;29.02
43155;BME280;34212;51.018;13.586;2023-07-08T15:48:38;98172.06;;;29.24;29.16
43155;BME280;34212;51.018;13.586;2023-07-08T15:53:40;98177.50;;;29.05;30.84
43155;BME280;34212;51.018;13.586;2023-07-08T15:58:42;98161.75;;;28.87;31.04
43155;BME280;34212;51.018;13.586;2023-07-08T16:03:46;98179.72;;;28.74;31.92
43155;BME280;34212;51.018;13.586;2023-07-08T16:08:48;98172.06;;;28.71;31.84
43155;BME280;34212;51.018;13.586;2023-07-08T16:13:49;98170.63;;;28.78;31.99
43155;BME280;34212;51.018;13.586;2023-07-08T16:18:51;98178.03;;;29.07;32.50
43155;BME280;34212;51.018;13.586;2023-07-08T16:23:53;98171.34;;;29.37;32.23
43155;BME280;34212;51.018;13.586;2023-07-08T16:28:56;98174.91;;;29.62;30.59
43155;BME280;34212;51.018;13.586;2023-07-08T16:33:58;98180.31;;;29.91;30.39
43155;BME280;34212;51.018;13.586;2023-07-08T16:39:01;98182.59;;;30.03;30.42
43155;BME280;34212;51.018;13.586;2023-07-08T16:44:23;98165.00;;;30.04;30.76
43155;BME280;34212;51.018;13.586;2023-07-08T16:49:24;98178.88;;;29.93;30.43
43155;BME280;34212;51.018;13.586;2023-07-08T16:54:26;98170.13;;;29.91;30.58
43155;BME280;34212;51.018;13.586;2023-07-08T16:59:27;98164.88;;;30.93;29.63
43155;BME280;34212;51.018;13.586;2023-07-08T17:04:29;98171.44;;;32.16;28.41
43155;BME280;34212;51.018;13.586;2023-07-08T17:09:30;98163.97;;;31.94;28.00
43155;BME280;34212;51.018;13.586;2023-07-08T17:14:33;98157.84;;;31.70;28.37
43155;BME280;34212;51.018;13.586;2023-07-08T17:19:34;98167.72;;;31.98;28.67
43155;BME280;34212;51.018;13.586;2023-07-08T17:24:36;98155.47;;;33.03;27.51
43155;BME280;34212;51.018;13.586;2023-07-08T17:29:38;98154.63;;;32.72;27.66
43155;BME280;34212;51.018;13.586;2023-07-08T17:34:39;98154.13;;;31.88;28.35
43155;BME280;34212;51.018;13.586;2023-07-08T17:39:41;98154.22;;;31.19;29.88
43155;BME280;34212;51.018;13.586;2023-07-08T17:44:43;98139.22;;;30.65;29.70
43155;BME280;34212;51.018;13.586;2023-07-08T17:49:44;98144.63;;;30.24;29.88
43155;BME280;34212;51.018;13.586;2023-07-08T17:54:46;98142.41;;;29.88;30.10
43155;BME280;34212;51.018;13.586;2023-07-08T17:59:48;98157.41;;;29.53;32.03
43155;BME280;34212;51.018;13.586;2023-07-08T18:04:49;98148.53;;;29.18;33.48
43155;BME280;34212;51.018;13.586;2023-07-08T18:09:51;98155.72;;;28.85;34.28
43155;BME280;34212;51.018;13.586;2023-07-08T18:14:52;98153.00;;;28.55;35.00
43155;BME280;34212;51.018;13.586;2023-07-08T18:19:54;98149.34;;;28.31;35.26
43155;BME280;34212;51.018;13.586;2023-07-08T18:24:56;98148.16;;;28.08;35.71
43155;BME280;34212;51.018;13.586;2023-07-08T18:29:57;98150.22;;;27.87;36.76
43155;BME280;34212;51.018;13.586;2023-07-08T18:34:59;98160.16;;;27.68;36.97
43155;BME280;34212;51.018;13.586;2023-07-08T18:40:00;98160.81;;;27.49;37.68
43155;BME280;34212;51.018;13.586;2023-07-08T18:45:02;98160.31;;;27.32;38.03
43155;BME280;34212;51.018;13.586;2023-07-08T18:50:07;98147.50;;;27.12;37.75
43155;BME280;34212;51.018;13.586;2023-07-08T18:55:22;98163.97;;;26.97;38.27
43155;BME280;34212;51.018;13.586;2023-07-08T19:00:24;98169.50;;;26.76;38.51
43155;BME280;34212;51.018;13.586;2023-07-08T19:05:26;98162.69;;;26.58;39.02
43155;BME280;34212;51.018;13.586;2023-07-08T19:10:30;98164.84;;;26.41;40.05
43155;BME280;34212;51.018;13.586;2023-07-08T19:15:34;98180.72;;;26.23;40.04
43155;BME280;34212;51.018;13.586;2023-07-08T19:20:39;98170.84;;;26.07;39.61
43155;BME280;34212;51.018;13.586;2023-07-08T19:25:42;98180.09;;;25.91;40.18
43155;BME280;34212;51.018;13.586;2023-07-08T19:30:53;98182.78;;;25.75;40.74
43155;BME280;34212;51.018;13.586;2023-07-08T19:35:56;98192.59;;;25.61;40.83
43155;BME280;34212;51.018;13.586;2023-07-08T19:41:02;98191.44;;;25.47;40.36
43155;BME280;34212;51.018;13.586;2023-07-08T19:46:04;98194.38;;;25.35;40.50
43155;BME280;34212;51.018;13.586;2023-07-08T19:51:06;98202.53;;;25.25;40.27
43155;BME280;34212;51.018;13.586;2023-07-08T19:56:20;98198.41;;;25.17;40.23
43155;BME280;34212;51.018;13.586;2023-07-08T20:01:24;98207.56;;;25.06;40.61
43155;BME280;34212;51.018;13.586;2023-07-08T20:06:27;98195.22;;;24.93;40.89
43155;BME280;34212;51.018;13.586;2023-07-08T20:11:29;98211.22;;;24.79;41.65
43155;BME280;34212;51.018;13.586;2023-07-08T20:16:31;98200.19;;;24.64;41.25
43155;BME280;34212;51.018;13.586;2023-07-08T20:21:32;98204.69;;;24.48;41.89
43155;BME280;34212;51.018;13.586;2023-07-08T20:26:34;98204.03;;;24.36;41.63
43155;BME280;34212;51.018;13.586;2023-07-08T20:31:36;98223.28;;;24.24;42.56
43155;BME280;34212;51.018;13.586;2023-07-08T20:36:38;98226.97;;;24.13;42.78
43155;BME280;34212;51.018;13.586;2023-07-08T20:41:40;98229.34;;;24.04;43.36
43155;BME280;34212;51.018;13.586;2023-07-08T20:46:42;98225.69;;;23.93;42.96
43155;BME280;34212;51.018;13.586;2023-07-08T20:51:46;98255.03;;;23.86;43.61
43155;BME280;34212;51.018;13.586;2023-07-08T20:56:47;98235.28;;;23.74;43.15
43155;BME280;34212;51.018;13.586;2023-07-08T21:01:52;98245.50;;;23.67;43.22
43155;BME280;34212;51.018;13.586;2023-07-08T21:06:55;98256.28;;;23.57;43.37
43155;BME280;34212;51.018;13.586;2023-07-08T21:11:56;98258.28;;;23.44;43.65
43155;BME280;34212;51.018;13.586;2023-07-08T21:16:58;98251.91;;;23.34;44.07
43155;BME280;34212;51.018;13.586;2023-07-08T21:21:59;98251.44;;;23.20;44.24
43155;BME280;34212;51.018;13.586;2023-07-08T21:27:01;98252.44;;;23.14;44.34
43155;BME280;34212;51.018;13.586;2023-07-08T21:32:03;98254.00;;;23.10;44.62
43155;BME280;34212;51.018;13.586;2023-07-08T21:37:05;98248.97;;;23.01;44.57
43155;BME280;34212;51.018;13.586;2023-07-08T21:42:09;98245.81;;;22.93;44.27
43155;BME280;34212;51.018;13.586;2023-07-08T21:47:11;98259.03;;;22.84;44.57
43155;BME280;34212;51.018;13.586;2023-07-08T21:52:13;98246.44;;;22.78;44.70
43155;BME280;34212;51.018;13.586;2023-07-08T21:57:14;98253.41;;;22.74;44.70
43155;BME280;34212;51.018;13.586;2023-07-08T22:02:17;98252.53;;;22.68;44.90
43155;BME280;34212;51.018;13.586;2023-07-08T22:07:18;98251.63;;;22.63;44.78
43155;BME280;34212;51.018;13.586;2023-07-08T22:12:20;98253.16;;;22.58;44.87
43155;BME280;34212;51.018;13.586;2023-07-08T22:17:22;98267.78;;;22.52;45.10
43155;BME280;34212;51.018;13.586;2023-07-08T22:22:24;98268.25;;;22.49;44.76
43155;BME280;34212;51.018;13.586;2023-07-08T22:27:25;98266.59;;;22.48;44.58
43155;BME280;34212;51.018;13.586;2023-07-08T22:32:27;98268.50;;;22.48;45.43
43155;BME280;34212;51.018;13.586;2023-07-08T22:37:28;98269.56;;;22.47;45.12
43155;BME280;34212;51.018;13.586;2023-07-08T22:42:30;98278.22;;;22.44;45.92
43155;BME280;34212;51.018;13.586;2023-07-08T22:47:31;98278.13;;;22.39;45.47
43155;BME280;34212;51.018;13.586;2023-07-08T22:52:36;98280.16;;;22.31;45.26
43155;BME280;34212;51.018;13.586;2023-07-08T22:57:38;98280.56;;;22.23;45.13
43155;BME280;34212;51.018;13.586;2023-07-08T23:02:39;98274.66;;;22.14;45.21
43155;BME280;34212;51.018;13.586;2023-07-08T23:07:41;98280.50;;;22.06;45.50
43155;BME280;34212;51.018;13.586;2023-07-08T23:12:42;98280.88;;;21.98;45.33
43155;BME280;34212;51.018;13.586;2023-07-08T23:17:44;98293.75;;;21.91;45.40
43155;BME280;34212;51.018;13.586;2023-07-08T23:22:47;98288.97;;;21.81;46.11
43155;BME280;34212;51.018;13.586;2023-07-08T23:27:48;98289.94;;;21.63;46.74
43155;BME280;34212;51.018;13.586;2023-07-08T23:32:50;98293.88;;;21.44;46.93
43155;BME280;34212;51.018;13.586;2023-07-08T23:37:52;98290.78;;;21.29;47.97
43155;BME280;34212;51.018;13.586;2023-07-08T23:42:58;98294.78;;;21.14;48.05
43155;BME280;34212;51.018;13.586;2023-07-08T23:47:59;98293.28;;;21.07;48.32
43155;BME280;34212;51.018;13.586;2023-07-08T23:53:01;98301.53;;;21.00;48.57
43155;BME280;34212;51.018;13.586;2023-07-08T23:58:02;98298.09;;;20.93;48.88
